createdAt,value
2018-04-08T00:03:13.132Z,9.27
2018-04-08T00:08:15.706Z,9.63
2018-04-08T00:13:18.282Z,8.70
2018-04-08T00:18:21.479Z,9.50
2018-04-08T00:23:24.392Z,10.07
2018-04-08T00:28:26.966Z,9.60
2018-04-08T00:33:29.562Z,11.00
2018-04-08T00:38:32.143Z,11.90
2018-04-08T00:43:37.798Z,13.13
2018-04-08T00:48:40.387Z,13.00
2018-04-08T00:53:42.989Z,13.87
2018-04-08T00:58:45.570Z,11.77
2018-04-08T01:03:48.162Z,11.57
2018-04-08T01:08:51.163Z,10.90
2018-04-08T01:14:08.519Z,11.87
2018-04-08T01:19:11.601Z,11.53
2018-04-08T01:24:14.597Z,10.50
2018-04-08T01:29:17.180Z,9.90
2018-04-08T01:34:20.218Z,9.73
2018-04-08T01:39:22.794Z,9.57
2018-04-08T01:44:25.860Z,10.47
2018-04-08T01:49:30.475Z,12.30
2018-04-08T01:54:39.625Z,9.47
2018-04-08T01:59:42.229Z,10.53
2018-04-08T02:04:45.667Z,10.73
2018-04-08T02:09:48.238Z,10.40
2018-04-08T02:14:51.376Z,10.87
2018-04-08T02:19:54.215Z,10.20
2018-04-08T02:24:57.389Z,10.03
2018-04-08T02:29:59.962Z,9.87
2018-04-08T02:35:02.533Z,10.77
2018-04-08T02:40:05.123Z,10.00
2018-04-08T02:45:08.330Z,10.83
2018-04-08T02:50:10.898Z,9.27
2018-04-08T02:55:14.038Z,10.20
2018-04-08T03:00:17.397Z,9.20
2018-04-08T03:10:30.685Z,8.90
2018-04-08T03:15:34.128Z,9.60
2018-04-08T03:20:36.702Z,9.40
2018-04-08T03:25:39.638Z,9.87
2018-04-08T03:30:43.128Z,12.10
2018-04-08T03:35:45.687Z,12.83
2018-04-08T03:40:48.263Z,10.23
2018-04-08T03:45:50.880Z,10.93
2018-04-08T03:50:56.140Z,10.57
2018-04-08T03:55:58.717Z,10.07
2018-04-08T04:01:01.279Z,10.83
2018-04-08T04:06:03.840Z,11.50
2018-04-08T04:11:06.418Z,11.23
2018-04-08T04:16:09.344Z,12.30
2018-04-08T04:21:23.950Z,11.60
2018-04-08T04:26:31.221Z,14.33
2018-04-08T04:31:33.773Z,12.10
2018-04-08T04:36:36.621Z,10.73
2018-04-08T04:41:39.196Z,11.70
2018-04-08T04:46:41.772Z,11.83
2018-04-08T04:51:45.241Z,11.70
2018-04-08T04:56:47.826Z,12.93
2018-04-08T05:01:50.377Z,12.70
2018-04-08T05:06:52.953Z,12.07
2018-04-08T05:11:55.520Z,12.30
2018-04-08T05:16:58.117Z,12.60
2018-04-08T05:22:00.683Z,14.50
2018-04-08T05:27:03.263Z,13.83
2018-04-08T05:32:05.856Z,13.30
2018-04-08T05:37:08.429Z,14.30
2018-04-08T05:42:12.024Z,14.23
2018-04-08T05:47:14.606Z,14.50
2018-04-08T05:52:17.175Z,14.10
2018-04-08T05:57:19.736Z,14.90
2018-04-08T06:02:23.042Z,13.63
2018-04-08T06:07:25.632Z,14.57
2018-04-08T06:12:28.514Z,13.93
2018-04-08T06:17:31.084Z,14.40
2018-04-08T06:22:33.654Z,14.93
2018-04-08T06:27:37.056Z,16.20
2018-04-08T06:32:39.630Z,16.20
2018-04-08T06:37:42.703Z,16.57
2018-04-08T06:42:45.274Z,16.33
2018-04-08T06:47:47.837Z,16.50
2018-04-08T06:52:50.386Z,17.10
2018-04-08T06:57:53.766Z,17.23
2018-04-08T07:02:56.657Z,16.73
2018-04-08T07:07:59.662Z,16.40
2018-04-08T07:13:02.230Z,17.27
2018-04-08T07:18:05.658Z,16.77
2018-04-08T07:23:08.245Z,18.63
2018-04-08T07:28:10.829Z,17.17
2018-04-08T07:33:14.538Z,16.50
2018-04-08T07:38:17.110Z,16.27
2018-04-08T07:43:19.674Z,18.67
2018-04-08T07:48:22.250Z,16.93
2018-04-08T07:53:24.827Z,17.10
2018-04-08T07:58:27.894Z,16.70
2018-04-08T08:03:31.114Z,16.77
2018-04-08T08:08:35.165Z,15.87
2018-04-08T08:13:37.719Z,16.60
2018-04-08T08:18:40.733Z,15.67
2018-04-08T08:23:43.309Z,14.70
2018-04-08T08:28:46.470Z,12.80
2018-04-08T08:33:49.883Z,13.10
2018-04-08T08:38:53.021Z,13.57
2018-04-08T08:43:55.584Z,13.90
2018-04-08T08:48:58.156Z,13.00
2018-04-08T08:54:00.734Z,15.00
2018-04-08T08:59:03.307Z,14.53
2018-04-08T09:04:05.908Z,13.97
2018-04-08T09:09:08.482Z,15.40
2018-04-08T09:14:11.047Z,14.77
2018-04-08T09:19:31.401Z,15.17
2018-04-08T09:24:37.738Z,14.40
2018-04-08T09:29:40.298Z,14.20
2018-04-08T09:34:42.886Z,14.37
2018-04-08T09:39:45.448Z,16.50
2018-04-08T09:44:48.594Z,14.87
2018-04-08T09:49:51.161Z,14.50
2018-04-08T09:54:54.084Z,14.40
2018-04-08T09:59:56.670Z,14.60
2018-04-08T10:04:59.234Z,14.93
2018-04-08T10:10:02.413Z,14.27
2018-04-08T10:15:05.477Z,13.50
2018-04-08T10:20:08.439Z,14.60
2018-04-08T10:25:10.997Z,12.37
2018-04-08T10:30:13.654Z,13.00
2018-04-08T10:35:16.206Z,13.00
2018-04-08T10:40:18.772Z,11.43
2018-04-08T10:45:21.384Z,12.97
2018-04-08T10:50:23.948Z,11.83
2018-04-08T10:55:27.104Z,12.10
2018-04-08T11:00:29.666Z,8.80
2018-04-08T11:05:32.972Z,10.80
2018-04-08T11:10:36.955Z,8.23
2018-04-08T11:15:39.527Z,7.97
2018-04-08T11:20:42.107Z,7.60
2018-04-08T11:25:51.440Z,8.30
2018-04-08T11:30:54.009Z,7.47
2018-04-08T11:35:56.583Z,5.63
2018-04-08T11:40:59.140Z,6.60
2018-04-08T11:46:01.729Z,8.60
2018-04-08T11:51:04.282Z,7.10
2018-04-08T11:56:06.850Z,7.10
2018-04-08T12:01:09.430Z,5.23
2018-04-08T12:06:12.776Z,5.73
2018-04-08T12:11:15.364Z,7.60
2018-04-08T12:16:17.938Z,8.10
2018-04-08T12:21:20.512Z,8.57
2018-04-08T12:26:25.831Z,7.70
2018-04-08T12:31:28.405Z,8.87
2018-04-08T12:36:30.966Z,8.27
2018-04-08T12:41:33.525Z,7.20
2018-04-08T12:46:36.089Z,7.30
2018-04-08T12:51:38.822Z,6.70
2018-04-08T12:56:41.395Z,7.47
2018-04-08T13:01:44.006Z,7.00
2018-04-08T13:06:46.590Z,6.73
2018-04-08T13:11:49.177Z,7.10
2018-04-08T13:16:51.773Z,5.73
2018-04-08T13:21:54.353Z,4.20
2018-04-08T13:26:57.709Z,4.70
2018-04-08T13:32:00.301Z,6.87
2018-04-08T13:37:03.458Z,7.00
2018-04-08T13:42:06.280Z,6.73
2018-04-08T13:47:08.858Z,6.53
2018-04-08T13:52:11.418Z,8.77
2018-04-08T13:57:14.826Z,8.33
2018-04-08T14:02:17.430Z,8.67
2018-04-08T14:07:22.925Z,7.90
2018-04-08T14:12:25.498Z,7.13
2018-04-08T14:17:28.415Z,5.60
2018-04-08T14:22:31.003Z,5.40
2018-04-08T14:27:35.422Z,5.13
2018-04-08T14:32:38.024Z,4.90
2018-04-08T14:37:41.083Z,4.43
2018-04-08T14:42:43.657Z,4.53
2018-04-08T14:47:46.233Z,4.50
2018-04-08T14:52:48.830Z,6.63
2018-04-08T14:57:53.057Z,4.57
2018-04-08T15:02:55.643Z,4.13
2018-04-08T15:07:58.219Z,4.53
2018-04-08T15:13:00.804Z,4.90
2018-04-08T15:18:03.991Z,4.43
2018-04-08T15:23:14.414Z,5.37
2018-04-08T15:28:17.022Z,3.70
2018-04-08T15:33:22.819Z,16.23
2018-04-08T15:38:25.365Z,6.37
2018-04-08T15:43:28.381Z,11.23
2018-04-08T15:48:31.230Z,7.47
2018-04-08T15:53:33.795Z,5.50
2018-04-08T15:58:36.361Z,5.40
2018-04-08T16:03:38.936Z,5.23
2018-04-08T16:08:41.504Z,4.37
2018-04-08T16:13:44.109Z,4.87
2018-04-08T16:18:46.726Z,5.47
2018-04-08T16:23:49.323Z,4.67
2018-04-08T16:28:51.952Z,5.47
2018-04-08T16:33:54.524Z,5.13
2018-04-08T16:38:57.091Z,6.50
2018-04-08T16:43:59.661Z,4.80
2018-04-08T16:49:02.257Z,5.73
2018-04-08T16:54:05.922Z,5.10
2018-04-08T16:59:08.534Z,5.50
2018-04-08T17:04:11.554Z,6.80
2018-04-08T17:09:14.143Z,6.67
2018-04-08T17:14:16.700Z,6.70
2018-04-08T17:19:19.258Z,7.63
2018-04-08T17:24:24.447Z,6.73
2018-04-08T17:29:27.021Z,6.40
2018-04-08T17:34:31.395Z,6.87
2018-04-08T17:39:33.962Z,7.17
2018-04-08T17:44:36.530Z,8.20
2018-04-08T17:49:39.106Z,7.37
2018-04-08T17:54:42.286Z,8.10
2018-04-08T17:59:45.282Z,6.83
2018-04-08T18:04:47.862Z,7.37
2018-04-08T18:09:51.654Z,6.33
2018-04-08T18:14:55.289Z,6.23
2018-04-08T18:19:57.863Z,5.50
2018-04-08T18:25:01.163Z,5.10
2018-04-08T18:30:03.735Z,4.90
2018-04-08T18:35:06.321Z,5.40
2018-04-08T18:40:08.889Z,5.07
2018-04-08T18:45:12.237Z,6.30
2018-04-08T18:50:14.835Z,6.90
2018-04-08T18:55:17.410Z,5.43
2018-04-08T19:00:22.573Z,5.90
2018-04-08T19:05:25.143Z,5.90
2018-04-08T19:10:32.631Z,5.60
2018-04-08T19:15:35.820Z,6.10
2018-04-08T19:20:44.077Z,5.40
2018-04-08T19:25:46.665Z,5.43
2018-04-08T19:30:49.245Z,5.73
2018-04-08T19:35:53.372Z,5.83
2018-04-08T19:40:56.524Z,6.30
2018-04-08T19:45:59.103Z,4.70
2018-04-08T19:51:02.293Z,4.20
2018-04-08T19:56:05.318Z,4.87
2018-04-08T20:01:07.890Z,4.97
2018-04-08T20:06:12.881Z,4.90
2018-04-08T20:11:18.023Z,4.10
2018-04-08T20:16:20.601Z,4.93
2018-04-08T20:21:23.175Z,4.17
2018-04-08T20:26:26.977Z,5.10
2018-04-08T20:31:29.558Z,5.10
2018-04-08T20:36:32.141Z,5.03
2018-04-08T20:41:35.606Z,4.97
2018-04-08T20:46:40.641Z,4.80
2018-04-08T20:51:43.201Z,4.53
2018-04-08T20:56:46.237Z,4.30
2018-04-08T21:01:49.377Z,4.50
2018-04-08T21:06:51.978Z,5.33
2018-04-08T21:11:54.541Z,4.37
2018-04-08T21:16:57.685Z,4.90
2018-04-08T21:22:00.260Z,9.10
2018-04-08T21:27:03.443Z,10.27
2018-04-08T21:32:06.024Z,6.47
2018-04-08T21:37:08.885Z,4.30
2018-04-08T21:42:11.458Z,5.63
2018-04-08T21:47:14.023Z,5.90
2018-04-08T21:52:20.319Z,5.30
2018-04-08T21:57:26.044Z,4.80
2018-04-08T22:02:29.694Z,4.00
2018-04-08T22:07:32.273Z,4.93
2018-04-08T22:12:34.832Z,4.40
2018-04-08T22:17:38.042Z,5.13
2018-04-08T22:22:40.606Z,4.80
2018-04-08T22:27:44.193Z,4.53
2018-04-08T22:32:46.757Z,5.40
2018-04-08T22:37:51.911Z,5.43
2018-04-08T22:42:54.999Z,4.50
2018-04-08T22:47:57.789Z,4.40
2018-04-08T22:53:00.355Z,4.87
2018-04-08T22:58:02.939Z,4.50
2018-04-08T23:03:05.496Z,4.70
2018-04-08T23:08:08.054Z,5.17
2018-04-08T23:13:11.594Z,6.37
2018-04-08T23:18:14.658Z,5.40
2018-04-08T23:23:17.226Z,5.80
2018-04-08T23:28:20.083Z,6.73
2018-04-08T23:33:23.222Z,5.40
2018-04-08T23:38:25.785Z,5.27
2018-04-08T23:43:28.329Z,4.63
2018-04-08T23:48:31.060Z,5.57
2018-04-08T23:53:33.943Z,4.60
2018-04-08T23:58:36.530Z,5.43
